Time;durP1;ratioP1;P1;durP2;ratioP2;P2;SDS_P1;SDS_P2;PMS_P1;PMS_P2;Temp;Humidity;BMP_temperature;BMP_pressure;BME280_temperature;BME280_humidity;BME280_pressure;Samples;Min_cycle;Max_cycle;Signal;HPM_P1;HPM_P2
2023/07/12 00:02:08;;;;;;;5.25;1.50;;;22.90;99.90;;;;;;5093412;28;20261;-51
2023/07/12 00:04:33;;;;;;;2.47;1.60;;;22.80;99.90;;;;;;5093554;28;20338;-50
2023/07/12 00:06:59;;;;;;;4.07;1.70;;;22.80;99.90;;;;;;5093465;28;20208;-51
2023/07/12 00:09:24;;;;;;;5.95;1.77;;;22.90;99.90;;;;;;5092612;28;20169;-50
2023/07/12 00:11:50;;;;;;;3.65;2.00;;;23.00;99.90;;;;;;5093588;28;20641;-51
2023/07/12 00:14:16;;;;;;;3.88;1.77;;;23.00;99.90;;;;;;5093408;28;20591;-51
2023/07/12 00:16:41;;;;;;;2.55;1.80;;;23.00;99.90;;;;;;5093596;28;20536;-50
2023/07/12 00:19:13;;;;;;;5.22;1.83;;;22.90;99.90;;;;;;5093243;28;20170;-51
2023/07/12 00:21:39;;;;;;;6.47;2.08;;;22.90;99.90;;;;;;5093431;28;20173;-51
2023/07/12 00:24:05;;;;;;;5.32;1.65;;;22.90;99.90;;;;;;5093326;28;20201;-50
2023/07/12 00:26:35;;;;;;;3.60;1.73;;;22.80;99.90;;;;;;5093156;28;20698;-51
2023/07/12 00:29:05;;;;;;;4.75;1.67;;;22.90;99.90;;;;;;5074849;28;20204;-50
2023/07/12 00:31:32;;;;;;;5.03;1.98;;;22.90;99.90;;;;;;5093320;28;20575;-51
2023/07/12 00:33:58;;;;;;;4.32;2.03;;;22.70;99.90;;;;;;5093036;28;20161;-51
2023/07/12 00:36:29;;;;;;;4.78;1.90;;;22.80;99.90;;;;;;5092932;28;20592;-48
2023/07/12 00:38:55;;;;;;;7.25;1.98;;;22.70;99.90;;;;;;5093074;28;20592;-49
2023/07/12 00:41:41;;;;;;;3.65;1.80;;;22.60;99.90;;;;;;5093252;28;20185;-51
2023/07/12 00:44:35;;;;;;;3.92;1.80;;;25.50;99.90;;;;;;5092734;28;20205;-50
2023/07/12 00:47:00;;;;;;;3.33;1.52;;;22.70;99.90;;;;;;5064950;28;20265;-47
2023/07/12 00:49:26;;;;;;;2.47;1.70;;;22.70;99.90;;;;;;5092646;28;20712;-49
2023/07/12 00:52:11;;;;;;;4.97;1.90;;;22.60;99.90;;;;;;5093164;28;20524;-50
2023/07/12 00:54:51;;;;;;;4.35;2.10;;;22.50;99.90;;;;;;5092596;28;20702;-52
2023/07/12 00:57:17;;;;;;;2.78;1.85;;;22.40;99.90;;;;;;5074347;28;20175;-50
2023/07/12 00:59:43;;;;;;;2.65;1.45;;;22.50;99.90;;;;;;5092689;28;20162;-48
2023/07/12 01:02:10;;;;;;;2.47;1.60;;;22.60;99.90;;;;;;5092710;28;20169;-49
2023/07/12 01:04:42;;;;;;;3.22;1.95;;;22.60;99.90;;;;;;5092476;28;20197;-48
2023/07/12 01:07:08;;;;;;;5.32;2.08;;;22.50;99.90;;;;;;5074132;28;20215;-49
2023/07/12 01:09:33;;;;;;;5.80;2.03;;;22.60;99.90;;;;;;5092152;28;20640;-48
2023/07/12 01:12:00;;;;;;;5.80;1.80;;;22.70;99.90;;;;;;5092341;28;20170;-48
2023/07/12 01:14:26;;;;;;;6.80;2.63;;;22.60;99.90;;;;;;5092237;28;20238;-48
2023/07/12 01:16:58;;;;;;;2.42;1.80;;;22.50;99.90;;;;;;5092678;28;20168;-48
2023/07/12 01:19:24;;;;;;;2.38;1.52;;;22.40;99.90;;;;;;5092370;28;20199;-48
2023/07/12 01:21:52;;;;;;;5.95;2.08;;;22.20;99.90;;;;;;5092386;28;20230;-47
2023/07/12 01:24:19;;;;;;;3.95;2.17;;;22.20;99.90;;;;;;5092139;28;20197;-47
2023/07/12 01:26:50;;;;;;;3.63;2.08;;;22.00;99.90;;;;;;5074044;28;20176;-47
2023/07/12 01:29:16;;;;;;;3.22;2.00;;;22.20;99.90;;;;;;5092050;28;20192;-48
2023/07/12 01:31:43;;;;;;;6.47;2.22;;;22.20;99.90;;;;;;5092294;28;20197;-48
2023/07/12 01:34:09;;;;;;;4.60;2.00;;;22.30;99.90;;;;;;5092284;28;20578;-53
2023/07/12 01:36:35;;;;;;;3.78;2.03;;;22.40;99.90;;;;;;5092322;28;20170;-52
2023/07/12 01:39:03;;;;;;;8.20;2.33;;;22.20;99.90;;;;;;5073797;28;20535;-52
2023/07/12 01:41:29;;;;;;;5.15;1.95;;;22.20;99.90;;;;;;5091862;28;20161;-52
2023/07/12 01:43:55;;;;;;;4.32;2.65;;;22.10;99.90;;;;;;5091764;28;20235;-51
2023/07/12 01:46:21;;;;;;;4.03;1.90;;;22.10;99.90;;;;;;5092229;28;20655;-52
2023/07/12 01:48:47;;;;;;;3.80;2.13;;;22.10;99.90;;;;;;5073602;28;20169;-52
2023/07/12 01:51:14;;;;;;;5.95;2.03;;;22.10;99.90;;;;;;5091790;28;20213;-50
2023/07/12 01:53:40;;;;;;;3.67;2.38;;;22.00;99.90;;;;;;5091708;28;20218;-50
2023/07/12 01:56:07;;;;;;;3.90;1.80;;;21.90;99.90;;;;;;5091735;28;20527;-50
2023/07/12 01:58:33;;;;;;;4.18;2.25;;;22.00;99.90;;;;;;5091676;28;20169;-52
2023/07/12 02:00:59;;;;;;;7.45;2.55;;;22.10;99.90;;;;;;5091640;28;20169;-52
2023/07/12 02:03:26;;;;;;;6.15;2.15;;;22.10;99.90;;;;;;5091663;28;20162;-51
2023/07/12 02:05:52;;;;;;;7.45;1.88;;;22.00;99.90;;;;;;5091906;28;20286;-52
2023/07/12 02:08:18;;;;;;;3.25;1.88;;;21.90;99.90;;;;;;5091580;28;20694;-52
2023/07/12 02:10:44;;;;;;;4.15;2.33;;;21.90;99.90;;;;;;5091308;28;20270;-50
2023/07/12 02:13:10;;;;;;;4.85;2.40;;;21.80;99.90;;;;;;5091500;28;20240;-48
2023/07/12 02:15:36;;;;;;;3.38;2.03;;;21.80;99.90;;;;;;5091866;28;20166;-49
2023/07/12 02:18:02;;;;;;;2.40;1.77;;;21.80;99.90;;;;;;5091530;28;20283;-51
2023/07/12 02:20:28;;;;;;;5.45;1.95;;;21.70;99.90;;;;;;5091370;28;20165;-49
2023/07/12 02:22:54;;;;;;;4.95;2.30;;;21.80;99.90;;;;;;5091397;28;20247;-50
2023/07/12 02:25:20;;;;;;;7.65;2.45;;;21.80;99.90;;;;;;5091914;28;20209;-49
2023/07/12 02:27:46;;;;;;;6.43;2.25;;;21.60;99.90;;;;;;5091405;28;20513;-52
2023/07/12 02:30:28;;;;;;;5.68;2.47;;;21.50;99.90;;;;;;5091420;28;20220;-51
2023/07/12 02:32:54;;;;;;;4.57;1.90;;;21.50;99.90;;;;;;5091844;28;20196;-48
2023/07/12 02:35:27;;;;;;;4.20;1.98;;;21.50;99.90;;;;;;5095946;28;20550;-49
2023/07/12 02:37:53;;;;;;;3.80;1.92;;;21.50;99.90;;;;;;5095510;28;20641;-48
2023/07/12 02:40:19;;;;;;;10.80;2.25;;;21.40;99.90;;;;;;5077474;28;20222;-50
2023/07/12 02:42:44;;;;;;;3.78;2.15;;;21.40;99.90;;;;;;5095161;28;20202;-50
2023/07/12 02:45:10;;;;;;;3.95;2.50;;;21.30;99.90;;;;;;5095056;28;20205;-50
2023/07/12 02:47:35;;;;;;;3.65;1.98;;;21.30;99.90;;;;;;5095062;28;20158;-50
2023/07/12 02:50:01;;;;;;;5.88;2.17;;;21.20;99.90;;;;;;5094995;28;20177;-50
2023/07/12 02:52:26;;;;;;;5.50;2.20;;;21.10;99.90;;;;;;5095038;28;20215;-49
2023/07/12 02:54:52;;;;;;;3.65;2.28;;;21.10;99.90;;;;;;5095332;28;20180;-49
2023/07/12 02:57:18;;;;;;;4.63;2.35;;;21.10;99.90;;;;;;5095109;28;20512;-51
2023/07/12 02:59:43;;;;;;;3.00;2.03;;;21.00;99.90;;;;;;5094839;28;20180;-50
2023/07/12 03:02:11;;;;;;;5.05;2.55;;;20.90;99.90;;;;;;5094677;28;20201;-52
2023/07/12 03:04:36;;;;;;;6.03;2.20;;;20.80;99.90;;;;;;5094547;28;20213;-52
2023/07/12 03:07:02;;;;;;;3.00;1.85;;;20.70;99.90;;;;;;5094788;28;20188;-50
2023/07/12 03:09:29;;;;;;;17.38;2.35;;;20.40;99.90;;;;;;5094521;28;20617;-49
2023/07/12 03:11:54;;;;;;;7.13;1.85;;;20.30;99.90;;;;;;5094665;28;20227;-50
2023/07/12 03:14:21;;;;;;;5.30;1.60;;;20.10;99.90;;;;;;5089622;28;20170;-51
2023/07/12 03:16:47;;;;;;;10.32;2.40;;;20.10;99.90;;;;;;5074262;28;20201;-50
2023/07/12 03:19:13;;;;;;;7.88;2.13;;;20.00;99.90;;;;;;5074250;28;20162;-50
2023/07/12 03:21:39;;;;;;;9.02;1.58;;;19.90;99.90;;;;;;5074267;28;20524;-50
2023/07/12 03:24:05;;;;;;;3.92;1.50;;;19.80;99.90;;;;;;5074075;28;20193;-50
2023/07/12 03:26:31;;;;;;;5.80;1.70;;;19.80;99.90;;;;;;5074057;28;20170;-50
2023/07/12 03:28:58;;;;;;;3.45;1.52;;;19.90;99.90;;;;;;5073989;28;20189;-50
2023/07/12 03:31:25;;;;;;;3.45;1.33;;;19.90;99.90;;;;;;5074254;28;20189;-50
2023/07/12 03:33:51;;;;;;;4.22;1.50;;;19.90;99.90;;;;;;5074287;28;20623;-50
2023/07/12 03:36:20;;;;;;;4.05;1.70;;;19.90;99.90;;;;;;5073897;28;20193;-50
2023/07/12 03:38:46;;;;;;;6.20;1.80;;;20.00;99.90;;;;;;5073884;28;20250;-50
2023/07/12 03:41:16;;;;;;;3.08;1.50;;;20.00;99.90;;;;;;5073815;28;20212;-49
2023/07/12 03:43:42;;;;;;;4.82;1.58;;;20.00;99.90;;;;;;5073577;28;20636;-50
2023/07/12 03:46:07;;;;;;;2.00;1.20;;;19.90;99.90;;;;;;5073668;28;20178;-50
2023/07/12 03:48:33;;;;;;;4.63;1.58;;;19.90;99.90;;;;;;5055696;28;20166;-51
2023/07/12 03:50:59;;;;;;;2.47;1.50;;;19.90;99.90;;;;;;5073662;28;20166;-49
2023/07/12 03:53:26;;;;;;;4.47;1.30;;;19.80;99.90;;;;;;5073706;28;20170;-49
2023/07/12 03:55:52;;;;;;;2.15;1.60;;;19.80;99.90;;;;;;5073899;28;20174;-51
2023/07/12 03:58:21;;;;;;;2.53;1.50;;;19.70;99.90;;;;;;5073878;28;20170;-50
2023/07/12 04:00:49;;;;;;;2.20;1.33;;;19.70;99.90;;;;;;5073441;28;20241;-50
2023/07/12 04:03:15;;;;;;;1.98;1.48;;;19.70;99.90;;;;;;5073414;28;20166;-49
2023/07/12 04:05:42;;;;;;;3.60;1.60;;;19.50;99.90;;;;;;5073177;28;20209;-53
2023/07/12 04:08:10;;;;;;;4.80;1.95;;;19.60;99.90;;;;;;5073212;28;20177;-53
2023/07/12 04:10:36;;;;;;;2.42;1.83;;;19.50;99.90;;;;;;5073041;28;20255;-52
2023/07/12 04:13:02;;;;;;;2.25;1.60;;;19.60;99.90;;;;;;5073460;28;20166;-50
2023/07/12 04:15:28;;;;;;;3.22;1.55;;;19.50;99.90;;;;;;5073140;28;20173;-50
2023/07/12 04:17:53;;;;;;;1.77;1.40;;;19.50;99.90;;;;;;5073032;28;20158;-50
2023/07/12 04:20:19;;;;;;;4.32;1.50;;;19.60;99.90;;;;;;5073491;28;20174;-49
2023/07/12 04:22:52;;;;;;;2.58;1.30;;;19.70;99.90;;;;;;5072909;28;20170;-50
2023/07/12 04:25:18;;;;;;;2.45;1.42;;;19.70;99.90;;;;;;5073232;28;20320;-50
2023/07/12 04:27:44;;;;;;;4.22;1.40;;;19.70;99.90;;;;;;5072852;28;20170;-49
2023/07/12 04:30:12;;;;;;;2.10;1.77;;;19.70;99.90;;;;;;5072856;28;20253;-49
2023/07/12 04:32:40;;;;;;;2.83;1.80;;;19.70;99.90;;;;;;5072815;28;20166;-51
2023/07/12 04:35:05;;;;;;;2.58;1.50;;;19.70;99.90;;;;;;5072770;28;20196;-50
2023/07/12 04:37:31;;;;;;;2.33;1.50;;;19.60;99.90;;;;;;5072772;28;20174;-50
2023/07/12 04:39:57;;;;;;;4.30;1.83;;;19.50;99.90;;;;;;5072635;28;20177;-52
2023/07/12 04:42:23;;;;;;;4.18;1.90;;;19.50;99.90;;;;;;5072863;28;20169;-52
2023/07/12 04:44:48;;;;;;;2.88;1.67;;;19.60;99.90;;;;;;5072971;28;20271;-53
2023/07/12 04:47:15;;;;;;;1.77;1.40;;;19.50;99.90;;;;;;5072610;28;20201;-53
2023/07/12 04:49:40;;;;;;;5.00;1.85;;;19.50;99.90;;;;;;5072462;28;20165;-53
2023/07/12 04:52:07;;;;;;;2.38;1.60;;;19.60;99.90;;;;;;5072427;28;20189;-52
2023/07/12 04:54:34;;;;;;;2.53;1.55;;;19.60;99.90;;;;;;5054422;28;20157;-53
2023/07/12 04:56:59;;;;;;;2.20;1.50;;;19.60;99.90;;;;;;5071886;28;20198;-52
2023/07/12 04:59:25;;;;;;;2.08;1.35;;;19.60;99.90;;;;;;5072234;28;20598;-52
2023/07/12 05:01:51;;;;;;;2.38;1.50;;;19.60;99.90;;;;;;5072835;28;20217;-53
2023/07/12 05:04:17;;;;;;;1.45;1.20;;;19.60;99.90;;;;;;5072357;28;20202;-52
2023/07/12 05:06:42;;;;;;;1.52;1.42;;;19.70;99.90;;;;;;5072093;28;20178;-52
2023/07/12 05:09:08;;;;;;;3.20;1.70;;;19.60;99.90;;;;;;5072160;28;20166;-51
2023/07/12 05:11:34;;;;;;;3.10;1.92;;;19.60;99.90;;;;;;5071880;28;20224;-53
2023/07/12 05:14:00;;;;;;;4.20;1.67;;;19.60;99.90;;;;;;5072187;28;20208;-52
2023/07/12 05:16:26;;;;;;;1.52;1.42;;;19.60;99.90;;;;;;5071752;28;20188;-53
2023/07/12 05:18:51;;;;;;;1.90;1.40;;;19.70;99.90;;;;;;5072052;28;20180;-52
2023/07/12 05:21:17;;;;;;;5.50;1.50;;;19.40;99.90;;;;;;5072382;28;20157;-52
2023/07/12 05:23:43;;;;;;;1.48;1.33;;;19.70;99.90;;;;;;5071810;28;20173;-51
2023/07/12 05:26:09;;;;;;;2.83;1.55;;;19.80;99.90;;;;;;5053734;28;20264;-50
2023/07/12 05:28:35;;;;;;;1.27;1.17;;;19.80;99.90;;;;;;5071845;28;20257;-50
2023/07/12 05:31:08;;;;;;;1.83;1.20;;;19.70;99.90;;;;;;5071724;28;20162;-52
2023/07/12 05:33:34;;;;;;;1.63;1.45;;;19.80;99.90;;;;;;5071662;28;20222;-50
2023/07/12 05:36:01;;;;;;;1.92;1.38;;;19.80;99.90;;;;;;5071689;28;20166;-49
2023/07/12 05:38:27;;;;;;;2.08;1.20;;;19.90;99.90;;;;;;5071742;28;20181;-50
2023/07/12 05:40:56;;;;;;;2.15;1.65;;;19.80;99.90;;;;;;5071779;28;20528;-50
2023/07/12 05:43:23;;;;;;;2.20;1.55;;;19.70;99.90;;;;;;5071459;28;20161;-50
2023/07/12 05:45:49;;;;;;;6.05;1.92;;;19.80;99.90;;;;;;5053767;28;20704;-50
2023/07/12 05:48:14;;;;;;;3.28;1.30;;;19.70;99.90;;;;;;5071474;28;20245;-50
2023/07/12 05:50:40;;;;;;;1.65;1.55;;;19.60;99.90;;;;;;5071388;28;20189;-50
2023/07/12 05:53:05;;;;;;;1.48;1.20;;;19.60;99.90;;;;;;5071425;28;20176;-50
2023/07/12 05:55:31;;;;;;;2.58;1.30;;;19.70;99.90;;;;;;5071495;28;20253;-50
2023/07/12 05:57:57;;;;;;;3.20;1.23;;;19.70;99.90;;;;;;5071762;28;20169;-50
2023/07/12 06:00:23;;;;;;;9.80;1.70;;;19.80;99.90;;;;;;5053382;28;20676;-50
2023/07/12 06:02:48;;;;;;;2.50;1.80;;;19.80;99.90;;;;;;5071874;28;20162;-50
2023/07/12 06:05:14;;;;;;;4.13;1.40;;;19.70;99.90;;;;;;5053404;28;20241;-50
2023/07/12 06:07:41;;;;;;;2.17;1.58;;;19.90;99.90;;;;;;5053515;28;20166;-50
2023/07/12 06:10:07;;;;;;;2.92;1.67;;;20.00;99.90;;;;;;5054171;28;20262;-50
2023/07/12 06:12:33;;;;;;;4.50;1.55;;;19.90;99.90;;;;;;5055752;28;20198;-50
2023/07/12 06:14:58;;;;;;;6.93;1.58;;;20.10;99.90;;;;;;5054087;28;20175;-50
2023/07/12 06:17:24;;;;;;;3.38;1.70;;;20.40;99.90;;;;;;5055387;28;20632;-50
2023/07/12 06:19:50;;;;;;;2.38;1.63;;;20.40;99.90;;;;;;5055763;28;20178;-52
2023/07/12 06:22:16;;;;;;;2.53;1.65;;;20.30;99.90;;;;;;5055568;28;20528;-50
2023/07/12 06:24:41;;;;;;;2.05;1.40;;;20.30;99.90;;;;;;5055144;28;20206;-50
2023/07/12 06:27:07;;;;;;;4.20;1.73;;;20.20;99.90;;;;;;5055110;28;20175;-50
2023/07/12 06:29:32;;;;;;;4.15;1.55;;;20.20;99.90;;;;;;5055111;28;20168;-50
2023/07/12 06:31:58;;;;;;;3.67;1.70;;;20.40;99.90;;;;;;5055120;28;20236;-50
2023/07/12 06:34:23;;;;;;;5.03;1.70;;;20.30;99.90;;;;;;5054998;28;20154;-50
2023/07/12 06:36:49;;;;;;;3.72;1.90;;;20.40;99.90;;;;;;5055391;28;20213;-50
2023/07/12 06:39:16;;;;;;;2.90;1.75;;;20.20;99.90;;;;;;5054921;28;20160;-50
2023/07/12 06:41:41;;;;;;;8.40;1.92;;;20.20;99.90;;;;;;5053844;28;20642;-50
2023/07/12 06:44:07;;;;;;;4.38;1.48;;;20.30;99.90;;;;;;5053491;28;20373;-50
2023/07/12 06:46:32;;;;;;;3.05;1.70;;;20.30;99.90;;;;;;5053606;28;20248;-52
2023/07/12 06:48:58;;;;;;;3.08;1.95;;;20.30;99.90;;;;;;5055054;28;20236;-52
2023/07/12 06:51:23;;;;;;;2.50;1.50;;;20.50;99.90;;;;;;5054801;28;20194;-52
2023/07/12 06:53:49;;;;;;;5.60;1.73;;;20.70;99.90;;;;;;5055137;28;20175;-52
2023/07/12 06:56:15;;;;;;;2.60;1.45;;;20.90;99.90;;;;;;5054695;28;20170;-50
2023/07/12 06:58:41;;;;;;;3.20;1.58;;;20.80;99.90;;;;;;5054850;28;20212;-50
2023/07/12 07:01:08;;;;;;;2.28;1.50;;;20.80;99.90;;;;;;5054903;28;20166;-50
2023/07/12 07:03:33;;;;;;;5.47;1.90;;;20.90;99.90;;;;;;5054736;28;20565;-51
2023/07/12 07:05:59;;;;;;;6.55;1.63;;;21.00;99.90;;;;;;5054432;28;20210;-51
2023/07/12 07:08:25;;;;;;;3.63;1.48;;;21.00;99.90;;;;;;5053571;28;20166;-51
2023/07/12 07:10:52;;;;;;;1.85;1.25;;;20.90;99.90;;;;;;5053101;28;20708;-50
2023/07/12 07:13:19;;;;;;;4.13;1.65;;;20.80;99.90;;;;;;5054738;28;20254;-52
2023/07/12 07:15:46;;;;;;;4.25;1.90;;;20.90;99.90;;;;;;5054575;28;20171;-52
2023/07/12 07:18:11;;;;;;;4.07;1.80;;;21.10;99.90;;;;;;5052936;28;20534;-51
2023/07/12 07:20:42;;;;;;;5.38;1.73;;;21.20;99.90;;;;;;5053762;28;20171;-52
2023/07/12 07:23:09;;;;;;;4.07;1.60;;;21.20;99.90;;;;;;5054488;28;20513;-50
2023/07/12 07:25:34;;;;;;;3.75;1.65;;;21.40;99.90;;;;;;5054001;28;20562;-52
2023/07/12 07:28:00;;;;;;;1.70;1.30;;;21.50;99.90;;;;;;5054106;28;20170;-52
2023/07/12 07:30:27;;;;;;;3.47;1.80;;;21.40;99.90;;;;;;5052797;28;20174;-57
2023/07/12 07:32:54;;;;;;;3.97;2.03;;;21.50;99.90;;;;;;5052714;28;20583;-52
2023/07/12 07:35:20;;;;;;;4.00;1.67;;;21.50;99.90;;;;;;5054652;28;20166;-52
2023/07/12 07:37:47;;;;;;;4.63;2.00;;;21.70;99.90;;;;;;5053886;28;20536;-52
2023/07/12 07:40:13;;;;;;;5.63;1.70;;;21.70;99.90;;;;;;5053908;28;20166;-52
2023/07/12 07:42:39;;;;;;;4.75;1.98;;;21.80;99.90;;;;;;5053816;28;20162;-52
2023/07/12 07:45:05;;;;;;;5.50;1.60;;;21.90;99.90;;;;;;5053713;28;20206;-53
2023/07/12 07:47:31;;;;;;;4.38;1.58;;;22.00;99.90;;;;;;5053695;28;20174;-52
2023/07/12 07:49:57;;;;;;;3.40;1.55;;;22.10;99.90;;;;;;5053818;28;20175;-51
2023/07/12 07:52:23;;;;;;;2.60;1.58;;;22.00;99.90;;;;;;5053767;28;20163;-51
2023/07/12 07:54:49;;;;;;;2.25;1.52;;;21.90;99.90;;;;;;5053983;28;20224;-51
2023/07/12 07:57:14;;;;;;;4.90;2.17;;;21.90;99.90;;;;;;5053549;28;20501;-51
2023/07/12 07:59:40;;;;;;;3.83;1.55;;;22.10;99.90;;;;;;5053508;28;20182;-52
2023/07/12 08:02:09;;;;;;;3.17;1.40;;;22.00;99.90;;;;;;5053375;28;20717;-50
2023/07/12 08:04:36;;;;;;;4.00;1.48;;;21.90;99.90;;;;;;5052050;28;20217;-53
2023/07/12 08:07:03;;;;;;;2.72;1.40;;;21.60;99.90;;;;;;5053468;28;20166;-50
2023/07/12 08:09:28;;;;;;;4.68;1.60;;;21.80;99.90;;;;;;5054320;28;20171;-51
2023/07/12 08:11:54;;;;;;;4.45;1.90;;;22.00;99.90;;;;;;5073191;28;20185;-50
2023/07/12 08:14:20;;;;;;;2.33;1.60;;;22.30;99.90;;;;;;5073576;28;20166;-50
2023/07/12 08:16:48;;;;;;;2.90;1.63;;;22.20;99.90;;;;;;5073843;28;20269;-50
2023/07/12 08:19:15;;;;;;;3.17;1.63;;;21.90;99.90;;;;;;5055107;28;20665;-52
2023/07/12 08:21:40;;;;;;;4.70;1.50;;;21.90;99.90;;;;;;5073047;28;20174;-50
2023/07/12 08:24:06;;;;;;;4.63;1.63;;;22.00;99.90;;;;;;5072659;28;20590;-50
2023/07/12 08:26:31;;;;;;;3.88;1.73;;;22.00;99.90;;;;;;5072919;28;20185;-48
2023/07/12 08:28:57;;;;;;;4.60;1.75;;;21.70;99.90;;;;;;5072912;28;20170;-48
2023/07/12 08:31:22;;;;;;;3.13;1.85;;;21.50;99.90;;;;;;5071854;28;20166;-50
2023/07/12 08:33:49;;;;;;;2.50;1.45;;;21.70;99.90;;;;;;5073267;28;20170;-50
2023/07/12 08:36:15;;;;;;;6.93;1.67;;;21.60;99.90;;;;;;5072939;28;20193;-49
2023/07/12 08:38:41;;;;;;;2.72;1.50;;;21.80;99.90;;;;;;5054956;28;20170;-49
2023/07/12 08:41:15;;;;;;;4.63;1.80;;;21.90;99.90;;;;;;5072471;28;20173;-49
2023/07/12 08:43:42;;;;;;;4.00;1.63;;;22.20;99.90;;;;;;5072565;28;20613;-50
2023/07/12 08:46:23;;;;;;;4.78;1.48;;;22.30;99.90;;;;;;5072652;28;20213;-49
2023/07/12 08:48:54;;;;;;;6.20;1.90;;;22.70;99.90;;;;;;5072925;28;20158;-50
2023/07/12 08:51:30;;;;;;;6.05;1.90;;;22.80;99.90;;;;;;5072718;28;20628;-51
2023/07/12 08:53:56;;;;;;;4.80;1.50;;;22.90;99.90;;;;;;5072400;28;20166;-50
2023/07/12 08:56:22;;;;;;;3.47;1.40;;;22.80;99.90;;;;;;5072339;28;20637;-48
2023/07/12 08:58:50;;;;;;;4.68;1.88;;;23.10;99.90;;;;;;5072723;28;20169;-50
2023/07/12 09:01:45;;;;;;;7.10;1.70;;;23.00;99.90;;;;;;5072609;28;20162;-49
2023/07/12 09:04:31;;;;;;;4.40;1.50;;;22.70;99.90;;;;;;5072105;28;20205;-50
2023/07/12 09:07:02;;;;;;;3.03;1.55;;;23.00;99.90;;;;;;5072147;28;20165;-48
2023/07/12 09:09:33;;;;;;;3.28;1.55;;;23.30;99.90;;;;;;5071825;28;20169;-48
2023/07/12 09:12:01;;;;;;;4.07;1.67;;;23.40;99.90;;;;;;5054139;28;20165;-49
2023/07/12 09:14:26;;;;;;;3.00;1.65;;;23.60;99.90;;;;;;5071921;28;20653;-49
2023/07/12 09:16:59;;;;;;;3.90;1.83;;;23.70;99.90;;;;;;5071930;28;20162;-48
2023/07/12 09:19:30;;;;;;;6.32;1.92;;;23.30;99.90;;;;;;5072205;28;20180;-49
2023/07/12 09:22:05;;;;;;;6.55;1.60;;;23.10;99.90;;;;;;5071839;28;20637;-49
2023/07/12 09:24:32;;;;;;;2.55;1.48;;;23.20;99.90;;;;;;5071792;28;20189;-49
2023/07/12 09:27:05;;;;;;;3.25;1.52;;;23.10;99.90;;;;;;5071775;28;20230;-49
2023/07/12 09:29:33;;;;;;;3.83;1.73;;;23.10;99.90;;;;;;5071782;28;20630;-49
2023/07/12 09:32:00;;;;;;;5.78;1.98;;;22.80;99.90;;;;;;5072033;28;20198;-50
2023/07/12 09:34:36;;;;;;;1.48;1.25;;;23.20;99.90;;;;;;5071783;28;20211;-49
2023/07/12 09:37:03;;;;;;;4.50;1.50;;;23.10;99.90;;;;;;5071730;28;20256;-50
2023/07/12 09:39:29;;;;;;;3.75;1.48;;;23.70;99.90;;;;;;5071685;28;20162;-51
2023/07/12 09:41:59;;;;;;;2.65;1.40;;;23.50;99.90;;;;;;5071364;28;20192;-50
2023/07/12 09:44:26;;;;;;;2.33;1.40;;;23.10;99.90;;;;;;5053534;28;20289;-49
2023/07/12 09:47:06;;;;;;;4.32;1.52;;;23.00;99.90;;;;;;5071559;28;20209;-49
2023/07/12 09:49:50;;;;;;;3.08;1.58;;;23.20;99.90;;;;;;5071515;28;20166;-49
2023/07/12 09:52:42;;;;;;;3.28;1.20;;;23.80;99.90;;;;;;5071895;28;20193;-50
2023/07/12 09:55:19;;;;;;;3.63;1.27;;;24.00;99.90;;;;;;5071625;28;20633;-48
2023/07/12 09:57:59;;;;;;;1.63;1.23;;;23.40;99.90;;;;;;5053562;28;20683;-49
2023/07/12 10:01:02;;;;;;;2.47;1.38;;;23.10;99.90;;;;;;5053405;28;20170;-49
2023/07/12 10:03:36;;;;;;;1.80;1.10;;;23.20;99.90;;;;;;5057843;28;20178;-49
2023/07/12 10:06:04;;;;;;;4.88;1.30;;;23.20;99.90;;;;;;5071286;28;20213;-48
2023/07/12 10:08:44;;;;;;;3.33;1.65;;;23.10;99.90;;;;;;5071666;28;20532;-48
2023/07/12 10:11:17;;;;;;;3.85;1.75;;;23.10;99.90;;;;;;5071179;28;20214;-49
2023/07/12 10:13:56;;;;;;;3.08;1.58;;;22.90;99.90;;;;;;5071295;28;20211;-49
2023/07/12 10:16:26;;;;;;;4.63;1.80;;;23.20;99.90;;;;;;5071438;28;20162;-49
2023/07/12 10:18:55;;;;;;;5.30;1.70;;;23.10;99.90;;;;;;5071461;28;20173;-48
2023/07/12 10:21:24;;;;;;;3.63;1.48;;;23.40;99.90;;;;;;5071208;28;20186;-49
2023/07/12 10:23:57;;;;;;;5.53;1.70;;;23.70;99.90;;;;;;5071603;28;20578;-49
2023/07/12 10:26:23;;;;;;;5.05;1.50;;;23.50;99.90;;;;;;5071191;28;20590;-48
2023/07/12 10:29:05;;;;;;;3.55;1.73;;;23.60;99.90;;;;;;5071560;28;20166;-48
2023/07/12 10:31:57;;;;;;;2.95;1.35;;;23.90;99.90;;;;;;5071415;28;20170;-48
2023/07/12 10:34:28;;;;;;;2.80;1.20;;;24.10;99.90;;;;;;5071174;28;20567;-48
2023/07/12 10:36:56;;;;;;;3.72;1.30;;;24.30;99.90;;;;;;5071084;28;20641;-48
2023/07/12 10:39:24;;;;;;;2.90;1.27;;;24.30;99.90;;;;;;5070951;28;20640;-49
2023/07/12 10:42:21;;;;;;;2.63;1.45;;;24.20;99.90;;;;;;5053500;28;20170;-48
2023/07/12 10:44:52;;;;;;;3.95;1.60;;;24.60;99.90;;;;;;5061772;28;20771;-49
2023/07/12 10:47:20;;;;;;;4.97;1.60;;;24.90;99.90;;;;;;5071414;28;20158;-50
2023/07/12 10:49:55;;;;;;;3.22;1.27;;;25.00;99.90;;;;;;5071898;28;20226;-49
2023/07/12 10:52:50;;;;;;;4.75;1.65;;;24.30;99.90;;;;;;5070932;28;20244;-49
2023/07/12 10:55:20;;;;;;;2.83;1.30;;;24.30;99.90;;;;;;5073906;28;20169;-50
2023/07/12 10:57:49;;;;;;;5.03;1.25;;;24.70;99.90;;;;;;5075263;28;20184;-49
2023/07/12 11:00:30;;;;;;;2.70;1.30;;;24.30;99.90;;;;;;5074831;28;20180;-50
2023/07/12 11:03:09;;;;;;;7.03;1.40;;;24.30;99.90;;;;;;5074742;28;20166;-49
2023/07/12 11:06:24;;;;;;;2.47;1.45;;;24.60;99.90;;;;;;5056427;28;20197;-50
2023/07/12 11:08:59;;;;;;;3.83;1.60;;;24.60;99.90;;;;;;5030939;28;20641;-50
2023/07/12 11:11:48;;;;;;;7.75;1.50;;;24.30;99.90;;;;;;5074231;28;20232;-49
2023/07/12 11:14:18;;;;;;;3.63;1.30;;;24.40;99.90;;;;;;5073674;28;20645;-50
2023/07/12 11:17:06;;;;;;;3.03;1.45;;;24.90;99.90;;;;;;5074476;28;20535;-50
2023/07/12 11:19:40;;;;;;;6.60;1.83;;;24.80;99.90;;;;;;5074194;28;20629;-50
2023/07/12 11:22:19;;;;;;;5.28;1.70;;;24.30;99.90;;;;;;5074082;28;20624;-50
2023/07/12 11:24:45;;;;;;;3.70;1.55;;;24.30;99.90;;;;;;5073999;28;20680;-51
2023/07/12 11:27:37;;;;;;;4.40;1.48;;;24.50;99.90;;;;;;5074024;28;20170;-51
2023/07/12 11:30:20;;;;;;;2.95;1.63;;;24.90;99.90;;;;;;5074237;28;20670;-51
2023/07/12 11:32:48;;;;;;;3.50;1.13;;;24.50;99.90;;;;;;5074484;28;20166;-51
2023/07/12 11:35:31;;;;;;;2.97;1.50;;;24.70;99.90;;;;;;5074322;28;20250;-50
2023/07/12 11:37:57;;;;;;;3.97;1.30;;;25.10;99.90;;;;;;5074102;28;20166;-49
2023/07/12 11:40:25;;;;;;;6.75;1.63;;;25.20;99.90;;;;;;5073759;28;20173;-51
2023/07/12 11:42:51;;;;;;;3.80;1.83;;;25.40;99.90;;;;;;5073834;28;20244;-49
2023/07/12 11:45:20;;;;;;;3.30;1.35;;;25.50;99.90;;;;;;5055984;28;20284;-49
2023/07/12 11:47:48;;;;;;;4.57;1.33;;;25.10;99.90;;;;;;5074375;28;20177;-51
2023/07/12 11:50:21;;;;;;;3.97;1.60;;;25.50;99.90;;;;;;5073667;28;20633;-49
2023/07/12 11:52:48;;;;;;;3.25;1.42;;;25.80;99.90;;;;;;5074376;28;20264;-51
2023/07/12 11:55:17;;;;;;;2.38;1.25;;;25.90;99.90;;;;;;5073896;28;20569;-51
2023/07/12 11:57:45;;;;;;;3.60;1.27;;;26.10;99.90;;;;;;5073396;28;20214;-50
2023/07/12 12:00:20;;;;;;;2.55;1.00;;;26.50;99.90;;;;;;5073629;28;20181;-49
2023/07/12 12:02:49;;;;;;;5.03;1.50;;;26.40;99.90;;;;;;5073801;28;20617;-50
2023/07/12 12:05:20;;;;;;;5.15;1.40;;;26.10;99.90;;;;;;5073816;28;20213;-51
2023/07/12 12:07:47;;;;;;;2.53;1.23;;;25.70;99.90;;;;;;5073947;28;20173;-51
2023/07/12 12:10:28;;;;;;;4.65;1.40;;;25.70;99.90;;;;;;5073044;28;20684;-50
2023/07/12 12:12:54;;;;;;;3.00;1.48;;;25.40;99.90;;;;;;5073187;28;20161;-50
2023/07/12 12:15:23;;;;;;;3.90;1.45;;;25.80;99.90;;;;;;5073131;28;20169;-50
2023/07/12 12:17:51;;;;;;;2.35;1.10;;;26.20;99.90;;;;;;5073517;28;20256;-50
2023/07/12 12:20:20;;;;;;;4.13;1.83;;;26.50;99.90;;;;;;5055587;28;20162;-50
2023/07/12 12:23:04;;;;;;;2.63;1.40;;;26.40;99.90;;;;;;5073664;28;20169;-49
2023/07/12 12:25:29;;;;;;;4.45;1.52;;;25.60;99.90;;;;;;5072832;28;20200;-50
2023/07/12 12:27:55;;;;;;;4.20;1.52;;;25.50;99.90;;;;;;5072891;28;20161;-49
2023/07/12 12:30:33;;;;;;;3.97;1.35;;;25.50;99.90;;;;;;5054972;28;20169;-49
2023/07/12 12:33:20;;;;;;;4.00;1.40;;;26.00;99.90;;;;;;5054918;28;20173;-49
2023/07/12 12:35:47;;;;;;;3.55;1.40;;;26.00;99.90;;;;;;5073201;28;20165;-49
2023/07/12 12:38:26;;;;;;;2.55;1.50;;;26.30;99.90;;;;;;5073011;28;20208;-49
2023/07/12 12:40:56;;;;;;;6.25;1.40;;;25.70;99.90;;;;;;5072556;28;20173;-50
2023/07/12 12:43:23;;;;;;;6.95;1.60;;;26.00;99.90;;;;;;5072327;28;20176;-49
2023/07/12 12:45:49;;;;;;;3.25;1.30;;;25.70;99.90;;;;;;5072945;28;20220;-49
2023/07/12 12:48:14;;;;;;;3.28;1.58;;;25.90;99.90;;;;;;5072681;28;20615;-48
2023/07/12 12:50:40;;;;;;;2.42;1.30;;;26.10;99.90;;;;;;5072440;28;20178;-49
2023/07/12 12:53:13;;;;;;;3.38;1.52;;;26.10;99.90;;;;;;5072663;28;20218;-49
2023/07/12 12:55:39;;;;;;;2.97;1.58;;;26.40;99.90;;;;;;5072450;28;20165;-49